Latest Weather Observations for Pound Creek

IDV60801

Issued at 10:02 pm EST Saturday 25 June 2016 (issued every 30 minutes, with the page automatically refreshed every 10 minutes)

About weather observations | Map of weather stations | Latest weather observations for VIC | Other Formats
Station Details ID: 085099 Name: POUND CREEK Lat: -38.63 Lon: 145.81 Height: 3.0 m
Data from the previous 72 hours. | See also: Recent months at Pound Creek
Date/Time
EST
Temp
°C
App
Temp
°C
Dew
Point
°C
Rel
Hum
%
Delta-T
°C
Wind Press
QNH
hPa
Press
MSL
hPa
Rain since
9am
mm
Dir  Spd
km/h
Gust
km/h
Spd
kts
Gust
kts
25/10:00pm 8.6 - - - - NNW 7 13 4 7 1021.4 1021.4 0.0
25/09:30pm 8.4 - - - - NNW 7 11 4 6 1021.4 1021.4 0.0
25/09:00pm 8.1 - - - - NW 7 13 4 7 1021.6 1021.6 0.0
25/08:30pm 7.5 - - - - NNW 9 11 5 6 1021.6 1021.6 0.0
25/08:00pm 8.0 - - - - NNW 9 13 5 7 1021.8 1021.8 0.0
25/07:30pm 7.8 - - - - NW 9 13 5 7 1021.9 1021.9 0.0
25/07:00pm 8.5 - - - - NNW 9 13 5 7 1021.9 1021.9 0.0
25/06:30pm 8.7 - - - - NNW 9 13 5 7 1021.9 1021.9 0.0
25/06:00pm 9.1 - - - - NNW 9 15 5 8 1021.9 1021.9 0.0
25/05:30pm 9.1 - - - - NNW 9 15 5 8 1021.7 1021.7 0.0
25/05:00pm 10.0 - - - - NW 11 19 6 10 1021.4 1021.4 0.0
25/04:30pm 10.6 - - - - NNW 7 11 4 6 1021.4 1021.4 0.0
25/04:00pm 10.6 - - - - NNW 9 13 5 7 1021.3 1021.3 0.0
25/03:30pm 11.3 - - - - NW 9 15 5 8 1021.3 1021.3 0.0
25/03:00pm 11.8 - - - - W 11 15 6 8 1021.2 1021.2 0.0
25/02:30pm 12.3 - - - - W 11 17 6 9 1021.1 1021.1 0.0
25/02:00pm 11.5 - - - - W 19 26 10 14 1021.2 1021.2 0.0
25/01:30pm 11.9 - - - - WSW 17 24 9 13 1021.3 1021.3 0.0
25/01:00pm 11.9 - - - - WNW 11 17 6 9 1021.4 1021.4 0.0
25/12:30pm 12.2 - - - - W 15 20 8 11 1021.5 1021.5 0.0
25/12:00pm 11.4 - - - - W 15 20 8 11 1021.6 1021.6 0.0
25/11:30am 11.3 - - - - W 15 20 8 11 1021.8 1021.8 0.0
25/11:00am 10.8 - - - - SW 13 20 7 11 1022.0 1022.0 0.0
25/10:30am 11.7 - - - - WSW 11 19 6 10 1021.8 1021.8 0.0
25/10:00am 9.0 - - - - NNW 11 15 6 8 1021.7 1021.7 0.0
25/09:30am 8.4 - - - - NW 7 11 4 6 1021.4 1021.4 0.0
25/09:00am 9.3 - - - - WNW 7 9 4 5 1020.8 1020.8 11.6
25/08:30am 9.0 - - - - WSW 15 28 8 15 1020.7 1020.7 11.6
25/08:00am 8.0 - - - - W 11 17 6 9 1020.4 1020.4 11.6
25/07:30am 8.1 - - - - SW 11 15 6 8 1020.3 1020.3 11.6
25/07:00am 8.7 - - - - SSW 13 19 7 10 1020.0 1020.0 11.6
25/06:30am 8.4 - - - - SW 19 26 10 14 1019.5 1019.5 11.6
25/06:00am 8.6 - - - - SSW 22 33 12 18 1019.1 1019.1 11.6
25/05:30am 8.8 - - - - WSW 19 28 10 15 1018.7 1018.7 11.6
25/05:00am 8.5 - - - - SW 22 30 12 16 1018.5 1018.5 11.6
25/04:30am 8.3 - - - - SW 17 24 9 13 1018.3 1018.3 11.6
25/04:00am 8.5 - - - - SW 20 24 11 13 1018.1 1018.1 11.6
25/03:30am 8.5 - - - - SW 20 28 11 15 1017.8 1017.8 11.6
25/03:00am 8.5 - - - - SW 20 28 11 15 1017.7 1017.7 11.4
25/02:30am 7.8 - - - - SW 17 20 9 11 1017.5 1017.5 11.4
25/02:00am 7.2 - - - - SSW 22 33 12 18 1017.2 1017.2 11.4
25/01:47am 8.0 - - - - SW 22 43 12 23 1017.1 1017.1 11.4
25/01:30am 7.3 - - - - SSW 15 22 8 12 1016.6 1016.6 11.4
25/01:00am 7.7 - - - - SSW 24 39 13 21 1016.7 1016.7 11.4
25/12:30am 6.0 - - - - W 9 13 5 7 1016.1 1016.1 11.4
25/12:00am 7.0 - - - - WSW 28 43 15 23 1016.0 1016.0 11.0
 
Date/Time
EST
Temp
°C
App
Temp
°C
Dew
Point
°C
Rel
Hum
%
Delta-T
°C
Wind Press
QNH
hPa
Press
MSL
hPa
Rain since
9am
mm
Dir  Spd
km/h
Gust
km/h
Spd
kts
Gust
kts
24/11:30pm 7.5 - - - - SW 22 30 12 16 1015.4 1015.4 11.0
24/11:00pm 7.8 - - - - SW 19 32 10 17 1015.2 1015.2 11.0
24/10:31pm 7.2 - - - - SW 28 54 15 29 1014.9 1014.9 10.0
24/10:30pm 7.7 - - - - SW 24 54 13 29 1014.9 1014.9 9.8
24/10:00pm 8.6 - - - - SW 33 43 18 23 1014.3 1014.3 9.8
24/09:30pm 8.7 - - - - WSW 32 43 17 23 1013.4 1013.4 9.8
24/09:02pm 8.5 - - - - SW 30 52 16 28 1013.2 1013.2 9.6
24/09:00pm 8.7 - - - - SW 28 39 15 21 1013.1 1013.1 9.4
24/08:30pm 8.9 - - - - SW 33 44 18 24 1012.7 1012.7 9.4
24/08:18pm 8.7 - - - - SW 28 44 15 24 1012.4 1012.4 9.4
24/08:00pm 7.2 - - - - WSW 15 26 8 14 1012.3 1012.3 9.2
24/07:47pm 6.8 - - - - SW 30 54 16 29 1012.2 1012.2 9.2
24/07:42pm 7.8 - - - - SW 24 52 13 28 1012.1 1012.1 9.2
24/07:30pm 7.2 - - - - SW 17 26 9 14 1011.9 1011.9 9.2
24/07:01pm 7.3 - - - - WSW 35 56 19 30 1010.9 1010.9 8.8
24/07:00pm 7.4 - - - - WSW 37 56 20 30 1010.9 1010.9 8.8
24/06:36pm 8.7 - - - - SW 33 57 18 31 1010.5 1010.5 8.6
24/06:30pm 8.7 - - - - WSW 30 39 16 21 1010.3 1010.3 8.6
24/06:16pm 8.4 - - - - WSW 28 48 15 26 1009.9 1009.9 8.6
24/06:00pm 8.0 - - - - WSW 24 37 13 20 1009.6 1009.6 8.6
24/05:32pm 7.2 - - - - SW 30 48 16 26 1009.3 1009.3 8.6
24/05:30pm 7.1 - - - - SW 33 48 18 26 1009.4 1009.4 8.6
24/05:09pm 7.7 - - - - SW 33 65 18 35 1008.7 1008.7 8.2
24/05:07pm 8.8 - - - - SW 28 48 15 26 1008.7 1008.7 8.2
24/05:00pm 8.4 - - - - SW 13 28 7 15 1008.1 1008.1 8.2
24/04:30pm 6.7 - - - - W 19 30 10 16 1007.9 1007.9 8.0
24/04:12pm 7.8 - - - - W 28 52 15 28 1007.4 1007.4 8.0
24/04:00pm 7.4 - - - - W 20 30 11 16 1007.0 1007.0 8.0
24/03:30pm 7.2 - - - - W 28 48 15 26 1006.5 1006.5 8.0
24/03:25pm 6.7 - - - - W 35 56 19 30 1006.6 1006.6 8.0
24/03:13pm 6.3 - - - - W 24 44 13 24 1006.3 1006.3 7.8
24/03:00pm 5.7 - - - - WNW 13 22 7 12 1006.2 1006.2 7.6
24/02:38pm 5.5 - - - - W 28 50 15 27 1006.1 1006.1 7.2
24/02:30pm 5.7 - - - - WSW 43 61 23 33 1006.0 1006.0 6.8
24/02:25pm 6.4 - - - - WSW 35 61 19 33 1006.1 1006.1 6.2
24/02:21pm 7.0 - - - - W 24 61 13 33 1005.7 1005.7 5.4
24/02:00pm 6.5 - - - - WNW 15 28 8 15 1004.5 1004.5 5.2
24/01:30pm 6.7 - - - - WNW 9 17 5 9 1004.2 1004.2 5.2
24/01:00pm 7.8 - - - - SW 24 39 13 21 1004.2 1004.2 4.8
24/12:30pm 7.5 - - - - W 11 15 6 8 1003.8 1003.8 4.8
24/12:00pm 7.0 - - - - WSW 28 39 15 21 1003.9 1003.9 4.6
24/11:30am 7.2 - - - - WSW 28 37 15 20 1003.7 1003.7 4.4
24/11:00am 6.7 - - - - WSW 33 50 18 27 1003.0 1003.0 4.0
24/10:36am 6.8 - - - - W 22 50 12 27 1002.5 1002.5 2.6
24/10:30am 7.0 - - - - WNW 19 32 10 17 1002.2 1002.2 1.0
24/10:00am 8.5 - - - - WNW 20 35 11 19 1001.9 1001.9 0.4
24/09:30am 8.8 - - - - WNW 17 28 9 15 1001.4 1001.4 0.4
24/09:00am 7.7 - - - - WNW 13 24 7 13 1001.1 1001.1 10.8
24/08:30am 7.0 - - - - NNW 17 35 9 19 1000.5 1000.5 10.8
24/08:00am 6.4 - - - - NNW 17 30 9 16 1000.3 1000.3 10.8
24/07:30am 7.0 - - - - NW 15 22 8 12 1000.0 1000.0 10.8
24/07:00am 7.3 - - - - NW 17 26 9 14 999.7 999.7 10.8
24/06:30am 7.2 - - - - NW 13 20 7 11 999.3 999.3 10.8
24/06:00am 7.0 - - - - NNW 13 20 7 11 999.0 999.0 10.8
24/05:30am 6.7 - - - - NNW 15 20 8 11 999.0 999.0 10.8
24/05:00am 6.7 - - - - NNW 13 19 7 10 998.8 998.8 10.8
24/04:30am 6.7 - - - - NNW 13 19 7 10 998.8 998.8 10.8
24/04:00am 6.5 - - - - NNW 9 19 5 10 998.7 998.7 10.8
24/03:30am 6.9 - - - - NW 11 19 6 10 998.8 998.8 10.8
24/03:00am 6.9 - - - - NW 11 17 6 9 998.8 998.8 10.8
24/02:30am 7.0 - - - - NW 13 20 7 11 998.6 998.6 10.8
24/02:00am 7.3 - - - - NW 15 22 8 12 998.4 998.4 10.8
24/01:30am 7.5 - - - - NW 17 26 9 14 998.5 998.5 10.8
24/01:00am 7.7 - - - - NW 11 20 6 11 998.2 998.2 10.8
24/12:30am 7.7 - - - - NNW 11 19 6 10 998.4 998.4 10.8
24/12:00am 7.8 - - - - NW 11 17 6 9 998.2 998.2 10.8
 
Date/Time
EST
Temp
°C
App
Temp
°C
Dew
Point
°C
Rel
Hum
%
Delta-T
°C
Wind Press
QNH
hPa
Press
MSL
hPa
Rain since
9am
mm
Dir  Spd
km/h
Gust
km/h
Spd
kts
Gust
kts
23/11:30pm 7.9 - - - - NNW 9 13 5 7 998.0 998.0 10.8
23/11:00pm 8.1 - - - - W 9 15 5 8 998.5 998.5 10.6
23/10:30pm 7.9 - - - - WSW 20 30 11 16 998.6 998.6 10.4
23/10:00pm 8.3 - - - - NNW 15 26 8 14 998.2 998.2 10.2
23/09:30pm 8.5 - - - - NNW 11 19 6 10 998.2 998.2 10.0
23/09:00pm 8.5 - - - - NW 9 13 5 7 998.2 998.2 10.0
23/08:30pm 8.6 - - - - NW 9 13 5 7 998.2 998.2 9.6
23/08:00pm 8.7 - - - - NW 7 13 4 7 998.2 998.2 9.4
23/07:30pm 8.8 - - - - NW 7 13 4 7 998.0 998.0 9.2
23/07:00pm 8.8 - - - - WNW 15 24 8 13 998.1 998.1 8.6
23/06:30pm 8.6 - - - - NW 19 30 10 16 997.5 997.5 7.6
23/06:00pm 8.6 - - - - NW 22 35 12 19 997.4 997.4 6.2
23/05:30pm 8.4 - - - - WNW 28 44 15 24 996.8 996.8 3.4
23/05:21pm 8.7 - - - - NW 32 61 17 33 996.5 996.5 2.8
23/05:20pm 9.2 - - - - NW 32 61 17 33 996.5 996.5 2.6
23/05:00pm 12.6 - - - - NNW 35 61 19 33 994.7 994.7 0.0
23/04:30pm 12.8 - - - - NNW 37 63 20 34 993.6 993.6 0.0
23/04:00pm 13.4 - - - - NNW 39 70 21 38 993.6 993.6 0.0
23/03:30pm 14.0 - - - - NNW 37 61 20 33 994.1 994.1 0.0
23/03:00pm 14.3 - - - - NNW 43 65 23 35 994.3 994.3 0.0
23/02:30pm 14.4 - - - - NNW 39 61 21 33 995.0 995.0 0.0
23/02:00pm 14.3 - - - - NNW 39 63 21 34 995.6 995.6 0.0
23/01:30pm 14.4 - - - - NNW 37 69 20 37 996.0 996.0 0.0
23/01:00pm 14.5 - - - - NNW 39 63 21 34 996.2 996.2 0.0
23/12:30pm 14.5 - - - - NNW 37 61 20 33 997.0 997.0 0.0
23/12:00pm 14.4 - - - - NNW 37 70 20 38 997.7 997.7 0.0
23/11:30am 14.2 - - - - NNW 37 69 20 37 998.3 998.3 0.0
23/11:23am 14.1 - - - - NNW 39 69 21 37 998.3 998.3 0.0
23/11:00am 14.0 - - - - NNW 30 50 16 27 999.1 999.1 0.0
23/10:30am 13.6 - - - - NNW 33 56 18 30 999.7 999.7 0.0
23/10:00am 13.2 - - - - NNW 33 54 18 29 1000.0 1000.0 0.0
23/09:33am 12.8 - - - - NNW 30 48 16 26 1000.3 1000.3 0.0
23/09:30am 12.7 - - - - NNW 30 46 16 25 1000.2 1000.2 0.0
23/09:01am 12.3 - - - - NNW 30 48 16 26 1000.4 1000.4 0.0
23/09:00am 12.2 - - - - NNW 32 50 17 27 1000.4 1000.4 5.4
23/08:34am 11.9 - - - - NNW 30 48 16 26 1000.5 1000.5 5.4
23/08:30am 11.8 - - - - NNW 26 43 14 23 1000.6 1000.6 5.4
23/08:08am 11.6 - - - - NNW 30 52 16 28 1000.8 1000.8 5.4
23/08:00am 11.6 - - - - NNW 32 48 17 26 1000.9 1000.9 5.4
23/07:31am 11.6 - - - - NNW 28 50 15 27 1001.0 1001.0 5.4
23/07:30am 11.4 - - - - NNW 26 50 14 27 1001.0 1001.0 5.4
23/07:06am 11.5 - - - - NNW 30 48 16 26 1001.0 1001.0 5.4
23/07:00am 11.6 - - - - NNW 32 46 17 25 1001.0 1001.0 5.4
23/06:30am 11.6 - - - - NNW 28 48 15 26 1001.0 1001.0 5.4
23/06:27am 11.6 - - - - NNW 28 48 15 26 1001.0 1001.0 5.4
23/06:00am 11.6 - - - - NNW 28 46 15 25 1001.0 1001.0 5.4
23/05:30am 11.5 - - - - NNW 26 46 14 25 1001.4 1001.4 5.4
23/05:00am 11.5 - - - - NNW 24 43 13 23 1001.8 1001.8 5.4
23/04:30am 11.7 - - - - NNW 28 46 15 25 1002.0 1002.0 5.4
23/04:00am 11.7 - - - - NNW 28 50 15 27 1002.4 1002.4 5.4
23/03:52am 11.7 - - - - NNW 28 50 15 27 1002.5 1002.5 5.4
23/03:30am 11.6 - - - - NNW 22 35 12 19 1002.9 1002.9 5.4
23/03:00am 11.9 - - - - NNW 26 44 14 24 1003.1 1003.1 5.4
23/02:30am 12.0 - - - - NNW 26 43 14 23 1003.3 1003.3 5.4
23/02:00am 12.0 - - - - NNW 22 41 12 22 1003.6 1003.6 5.4
23/01:30am 11.9 - - - - NNW 22 37 12 20 1004.1 1004.1 5.4
23/01:00am 12.3 - - - - NNW 24 39 13 21 1004.3 1004.3 5.4
23/12:30am 12.5 - - - - NNW 22 43 12 23 1004.5 1004.5 5.4
23/12:00am 12.5 - - - - NW 22 37 12 20 1004.8 1004.8 5.4
 
Date/Time
EST
Temp
°C
App
Temp
°C
Dew
Point
°C
Rel
Hum
%
Delta-T
°C
Wind Press
QNH
hPa
Press
MSL
hPa
Rain since
9am
mm
Dir  Spd
km/h
Gust
km/h
Spd
kts
Gust
kts
22/11:30pm 12.3 - - - - NNW 22 39 12 21 1004.9 1004.9 5.4
22/11:00pm 11.8 - - - - NNW 20 33 11 18 1005.0 1005.0 5.4
22/10:30pm 11.5 - - - - NNW 17 28 9 15 1005.0 1005.0 5.4

Other Formats:

Comma delimited format used in spreadsheet applications
http://www.bom.gov.au/fwo/IDV60801/IDV60801.94886.axf

JavaScript Object Notation format (JSON) in row-major order
http://www.bom.gov.au/fwo/IDV60801/IDV60801.94886.json